Time;durP1;ratioP1;P1;durP2;ratioP2;P2;SDS_P1;SDS_P2;PMS_P1;PMS_P2;Temp;Humidity;BMP_temperature;BMP_pressure;BME280_temperature;BME280_humidity;BME280_pressure;Samples;Min_cycle;Max_cycle;Signal;HPM_P1;HPM_P2
2021/08/30 00:01:19;;;;;;;;;;;;;;;19.64;53.48;100082.28;5119093;28;775;-56
2021/08/30 00:03:45;;;;;;;;;;;;;;;19.78;53.04;100090.53;5118759;28;780;-46
2021/08/30 00:06:10;;;;;;;;;;;;;;;19.59;53.61;100091.50;5117922;28;1938;-55
2021/08/30 00:08:36;;;;;;;;;;;;;;;19.35;54.23;100083.50;5118520;28;1019;-45
2021/08/30 00:11:01;;;;;;;;;;;;;;;19.53;53.57;100070.69;5118318;28;751;-56
2021/08/30 00:13:27;;;;;;;;;;;;;;;19.47;53.81;100064.50;5118015;28;962;-56
2021/08/30 00:15:56;;;;;;;;;;;;;;;19.39;53.94;100056.13;5118392;28;815;-55
2021/08/30 00:18:21;;;;;;;;;;;;;;;19.46;53.43;100045.47;5118009;28;999;-56
2021/08/30 00:20:47;;;;;;;;;;;;;;;19.46;53.72;100048.22;5118440;28;859;-57
2021/08/30 00:23:12;;;;;;;;;;;;;;;19.55;53.41;100042.81;5118315;28;810;-55
2021/08/30 00:25:38;;;;;;;;;;;;;;;19.44;53.46;100045.78;5118121;28;1967;-46
2021/08/30 00:28:03;;;;;;;;;;;;;;;19.49;53.63;100039.34;5117645;28;958;-57
2021/08/30 00:30:29;;;;;;;;;;;;;;;19.53;53.15;100040.38;5117981;28;768;-45
2021/08/30 00:32:54;;;;;;;;;;;;;;;19.57;53.16;100044.13;5118311;28;895;-58
2021/08/30 00:35:19;;;;;;;;;;;;;;;19.48;53.34;100057.03;5099219;28;833;-55
2021/08/30 00:37:47;;;;;;;;;;;;;;;19.36;53.70;100046.53;5118325;28;739;-47
2021/08/30 00:40:13;;;;;;;;;;;;;;;19.36;53.61;100045.72;5117378;28;755;-57
2021/08/30 00:42:38;;;;;;;;;;;;;;;19.41;53.39;100040.91;5117258;28;958;-57
2021/08/30 00:45:07;;;;;;;;;;;;;;;19.60;52.77;100035.22;5117837;28;553;-58
2021/08/30 00:47:33;;;;;;;;;;;;;;;19.51;53.13;100028.00;5117570;28;1973;-52
2021/08/30 00:49:58;;;;;;;;;;;;;;;19.36;53.50;100027.22;5117794;28;794;-46
2021/08/30 00:52:24;;;;;;;;;;;;;;;19.34;53.56;100015.69;5099580;28;748;-57
2021/08/30 00:54:49;;;;;;;;;;;;;;;19.65;52.71;100024.06;5117777;28;770;-57
2021/08/30 00:57:15;;;;;;;;;;;;;;;19.46;53.10;100026.16;5117069;28;985;-49
2021/08/30 00:59:42;;;;;;;;;;;;;;;19.34;53.46;100035.00;5099440;28;895;-50
2021/08/30 01:02:10;;;;;;;;;;;;;;;19.37;53.40;100039.88;5117752;28;762;-58
2021/08/30 01:04:36;;;;;;;;;;;;;;;19.45;53.42;100025.38;5117323;28;839;-46
2021/08/30 01:07:03;;;;;;;;;;;;;;;19.38;53.43;100030.50;5117588;28;1914;-53
2021/08/30 01:09:32;;;;;;;;;;;;;;;19.45;53.29;100035.59;5098261;28;1063;-51
2021/08/30 01:11:58;;;;;;;;;;;;;;;19.35;53.61;100042.16;5098791;28;1025;-53
2021/08/30 01:14:23;;;;;;;;;;;;;;;19.43;53.52;100054.38;5117419;28;760;-49
2021/08/30 01:16:49;;;;;;;;;;;;;;;19.47;53.45;100047.94;5098711;28;811;-56
2021/08/30 01:19:17;;;;;;;;;;;;;;;19.61;52.97;100055.34;5098595;28;827;-48
2021/08/30 01:21:43;;;;;;;;;;;;;;;19.34;53.57;100050.75;5116899;28;803;-57
2021/08/30 01:24:12;;;;;;;;;;;;;;;19.30;53.80;100054.09;5117034;28;767;-53
2021/08/30 01:26:42;;;;;;;;;;;;;;;19.33;53.59;100052.66;5098308;28;1956;-56
2021/08/30 01:29:07;;;;;;;;;;;;;;;19.38;53.55;100060.03;5117115;28;779;-46
2021/08/30 01:31:37;;;;;;;;;;;;;;;19.27;54.03;100067.69;5116886;28;751;-55
2021/08/30 01:34:02;;;;;;;;;;;;;;;19.43;53.66;100057.97;5098662;28;856;-52
2021/08/30 01:36:28;;;;;;;;;;;;;;;19.44;55.07;100059.56;5116464;28;727;-45
2021/08/30 01:38:58;;;;;;;;;;;;;;;19.83;55.85;100052.63;5098407;28;773;-56
2021/08/30 01:41:23;;;;;;;;;;;;;;;19.96;55.60;100050.13;5099247;28;1012;-53
2021/08/30 01:43:49;;;;;;;;;;;;;;;19.93;54.97;100050.75;5098510;28;885;-55
2021/08/30 01:46:14;;;;;;;;;;;;;;;19.63;54.32;100061.38;5098886;28;1971;-54
2021/08/30 01:48:47;;;;;;;;;;;;;;;19.48;53.38;100066.09;5116182;28;764;-48
2021/08/30 01:51:14;;;;;;;;;;;;;;;19.17;53.25;100065.97;5099459;28;747;-54
2021/08/30 01:53:40;;;;;;;;;;;;;;;19.14;52.39;100078.41;5116807;28;823;-52
2021/08/30 01:56:06;;;;;;;;;;;;;;;19.12;51.94;100082.59;5098297;28;839;-46
2021/08/30 02:00:57;;;;;;;;;;;;;;;18.89;51.33;100084.47;5098203;28;908;-50
2021/08/30 02:03:24;;;;;;;;;;;;;;;19.11;51.55;100080.97;5098526;28;810;-54
2021/08/30 02:05:50;;;;;;;;;;;;;;;19.17;52.52;100078.91;5116496;28;1909;-45
2021/08/30 02:08:16;;;;;;;;;;;;;;;19.24;53.82;100077.38;5115587;28;1144;-47
2021/08/30 02:10:42;;;;;;;;;;;;;;;19.24;54.87;100080.16;5116394;28;791;-48
2021/08/30 02:13:08;;;;;;;;;;;;;;;19.57;54.72;100076.41;5115684;28;1033;-53
2021/08/30 02:15:33;;;;;;;;;;;;;;;19.48;55.60;100079.88;5098580;28;764;-48
2021/08/30 02:18:00;;;;;;;;;;;;;;;19.63;55.62;100095.28;5115969;28;887;-50
2021/08/30 02:20:26;;;;;;;;;;;;;;;19.63;55.90;100095.28;5116654;28;859;-52
2021/08/30 02:22:58;;;;;;;;;;;;;;;19.71;55.99;100098.41;5116461;28;878;-55
2021/08/30 02:25:26;;;;;;;;;;;;;;;19.86;55.87;100094.53;5116440;28;811;-48
2021/08/30 02:27:57;;;;;;;;;;;;;;;19.61;56.59;100091.19;5115662;28;1994;-50
2021/08/30 02:30:24;;;;;;;;;;;;;;;19.80;56.41;100080.03;5116818;28;751;-49
2021/08/30 02:32:50;;;;;;;;;;;;;;;19.86;56.32;100086.25;5097748;28;914;-52
2021/08/30 02:35:18;;;;;;;;;;;;;;;19.80;56.53;100086.34;5116476;28;747;-49
2021/08/30 02:37:44;;;;;;;;;;;;;;;19.93;56.24;100095.69;5116534;28;798;-55
2021/08/30 02:40:10;;;;;;;;;;;;;;;19.89;56.64;100104.94;5115811;28;795;-52
2021/08/30 02:42:38;;;;;;;;;;;;;;;19.97;56.27;100096.72;5115934;28;970;-50
2021/08/30 02:45:04;;;;;;;;;;;;;;;20.04;56.25;100096.28;5116408;28;747;-54
2021/08/30 02:47:30;;;;;;;;;;;;;;;20.12;56.02;100097.50;5115923;28;1906;-48
2021/08/30 02:49:55;;;;;;;;;;;;;;;20.34;55.44;100107.69;5097730;28;911;-48
2021/08/30 02:52:21;;;;;;;;;;;;;;;19.99;56.59;100105.50;5098323;28;763;-53
2021/08/30 02:54:46;;;;;;;;;;;;;;;20.16;56.35;100092.94;5097637;28;1395;-53
2021/08/30 02:57:12;;;;;;;;;;;;;;;20.09;56.81;100098.94;5097385;28;963;-55
2021/08/30 02:59:37;;;;;;;;;;;;;;;20.31;56.22;100111.91;5116410;28;755;-50
2021/08/30 03:02:03;;;;;;;;;;;;;;;20.30;56.27;100126.00;5097434;28;828;-57
2021/08/30 03:04:29;;;;;;;;;;;;;;;20.20;56.37;100132.59;5119057;28;815;-53
2021/08/30 03:06:55;;;;;;;;;;;;;;;20.34;55.93;100127.84;5119807;28;1910;-53
2021/08/30 03:09:20;;;;;;;;;;;;;;;20.29;56.01;100135.44;5097106;28;1012;-53
2021/08/30 03:11:46;;;;;;;;;;;;;;;20.35;55.99;100137.72;5098993;28;954;-53
2021/08/30 03:14:15;;;;;;;;;;;;;;;20.30;56.23;100134.28;5097628;28;885;-50
2021/08/30 03:16:41;;;;;;;;;;;;;;;20.24;56.53;100127.25;5097904;28;831;-56
2021/08/30 03:19:06;;;;;;;;;;;;;;;20.32;56.42;100143.06;5098874;28;838;-50
2021/08/30 03:21:34;;;;;;;;;;;;;;;20.36;56.23;100144.09;5099008;28;823;-56
2021/08/30 03:24:00;;;;;;;;;;;;;;;20.32;56.32;100137.56;5097107;28;879;-53
2021/08/30 03:26:27;;;;;;;;;;;;;;;20.22;56.67;100135.06;5097803;28;1897;-50
2021/08/30 03:28:53;;;;;;;;;;;;;;;20.39;56.10;100146.22;5097416;28;845;-50
2021/08/30 03:31:18;;;;;;;;;;;;;;;20.38;56.20;100161.13;5098391;28;903;-50
2021/08/30 03:33:44;;;;;;;;;;;;;;;20.34;56.28;100160.13;5098056;28;827;-51
2021/08/30 03:36:10;;;;;;;;;;;;;;;20.39;56.34;100159.22;5097020;28;842;-53
2021/08/30 03:38:35;;;;;;;;;;;;;;;20.41;56.21;100162.47;5097064;28;995;-49
2021/08/30 03:41:00;;;;;;;;;;;;;;;20.37;56.36;100159.53;5098820;28;739;-52
2021/08/30 03:43:26;;;;;;;;;;;;;;;20.32;56.54;100170.69;5097299;28;963;-48
2021/08/30 03:45:52;;;;;;;;;;;;;;;20.49;55.99;100179.09;5096771;28;1984;-46
2021/08/30 03:48:19;;;;;;;;;;;;;;;20.41;56.34;100185.38;5098664;28;906;-50
2021/08/30 03:50:45;;;;;;;;;;;;;;;20.45;56.20;100183.59;5096642;28;886;-52
2021/08/30 03:53:10;;;;;;;;;;;;;;;20.45;56.30;100188.31;5098305;28;826;-59
2021/08/30 03:55:35;;;;;;;;;;;;;;;20.42;56.43;100184.22;5089814;28;1448;-61
2021/08/30 03:58:01;;;;;;;;;;;;;;;20.43;56.82;100193.34;5093540;28;1535;-56
2021/08/30 04:00:26;;;;;;;;;;;;;;;20.71;55.94;100196.81;5092590;28;1651;-50
2021/08/30 04:02:52;;;;;;;;;;;;;;;20.67;56.09;100210.44;5086212;28;1356;-57
2021/08/30 04:05:19;;;;;;;;;;;;;;;20.43;55.52;100202.44;5084332;28;1264;-55
2021/08/30 04:07:45;;;;;;;;;;;;;;;20.35;54.03;100211.47;5087920;28;1996;-46
2021/08/30 04:10:10;;;;;;;;;;;;;;;20.11;53.32;100211.78;5092153;28;712;-51
2021/08/30 04:12:35;;;;;;;;;;;;;;;19.71;52.52;100204.03;5096737;28;1285;-53
2021/08/30 04:15:01;;;;;;;;;;;;;;;19.51;52.15;100205.28;5090857;28;1276;-56
2021/08/30 04:17:27;;;;;;;;;;;;;;;19.58;51.09;100202.13;5088053;28;1563;-57
2021/08/30 04:19:52;;;;;;;;;;;;;;;19.37;51.20;100205.28;5097684;28;823;-57
2021/08/30 04:22:18;;;;;;;;;;;;;;;19.38;50.56;100206.94;5093534;28;1491;-52
2021/08/30 04:24:43;;;;;;;;;;;;;;;19.10;50.86;100204.16;5082071;28;743;-52
2021/08/30 04:27:09;;;;;;;;;;;;;;;19.13;50.45;100200.00;5097358;28;1982;-51
2021/08/30 04:29:35;;;;;;;;;;;;;;;19.04;50.35;100207.31;5098340;28;847;-57
2021/08/30 04:32:00;;;;;;;;;;;;;;;18.87;50.68;100227.16;5097762;28;754;-58
2021/08/30 04:34:26;;;;;;;;;;;;;;;18.93;50.04;100223.25;5081178;28;775;-55
2021/08/30 04:36:52;;;;;;;;;;;;;;;18.92;49.92;100232.63;5080449;28;770;-52
2021/08/30 04:39:17;;;;;;;;;;;;;;;18.90;51.57;100229.31;5088753;28;1546;-53
2021/08/30 04:41:43;;;;;;;;;;;;;;;18.97;52.10;100243.53;5088982;28;1423;-48
2021/08/30 04:44:09;;;;;;;;;;;;;;;19.19;52.90;100253.06;5089125;28;1446;-46
2021/08/30 04:46:34;;;;;;;;;;;;;;;19.62;54.15;100250.03;5087079;28;1906;-52
2021/08/30 04:49:00;;;;;;;;;;;;;;;19.91;55.58;100243.38;5095645;28;914;-44
2021/08/30 04:51:25;;;;;;;;;;;;;;;19.95;57.31;100247.16;5095050;28;1451;-49
2021/08/30 04:53:51;;;;;;;;;;;;;;;20.15;58.02;100249.47;5086442;28;1538;-48
2021/08/30 04:56:16;;;;;;;;;;;;;;;20.49;58.25;100250.88;5082761;28;1284;-49
2021/08/30 04:58:41;;;;;;;;;;;;;;;20.49;59.38;100259.16;5085165;28;1293;-48
2021/08/30 05:01:07;;;;;;;;;;;;;;;20.69;59.55;100257.06;5086568;28;743;-58
2021/08/30 05:03:32;;;;;;;;;;;;;;;20.85;59.29;100266.63;5081501;28;867;-56
2021/08/30 05:05:58;;;;;;;;;;;;;;;20.84;58.67;100269.69;5096915;28;1905;-58
2021/08/30 05:08:23;;;;;;;;;;;;;;;20.49;56.34;100261.13;5092236;28;1204;-55
2021/08/30 05:10:49;;;;;;;;;;;;;;;19.93;53.48;100272.31;5096870;28;756;-53
2021/08/30 05:13:14;;;;;;;;;;;;;;;19.31;51.60;100261.66;5112754;28;916;-53
2021/08/30 05:15:40;;;;;;;;;;;;;;;19.07;49.26;100261.81;5116937;28;815;-52
2021/08/30 05:18:05;;;;;;;;;;;;;;;18.68;48.05;100272.09;5117015;28;1334;-48
2021/08/30 05:20:30;;;;;;;;;;;;;;;18.70;48.32;100269.84;5116084;28;1533;-51
2021/08/30 05:22:56;;;;;;;;;;;;;;;19.34;50.88;100261.06;5116555;28;834;-54
2021/08/30 05:25:21;;;;;;;;;;;;;;;19.65;53.63;100272.28;5102766;28;799;-52
2021/08/30 05:27:48;;;;;;;;;;;;;;;19.95;55.48;100267.31;5111248;28;1981;-54
2021/08/30 05:30:17;;;;;;;;;;;;;;;20.18;56.83;100273.69;5112754;28;783;-51
2021/08/30 05:32:43;;;;;;;;;;;;;;;20.16;58.20;100270.44;5111657;28;794;-56
2021/08/30 05:35:08;;;;;;;;;;;;;;;20.44;58.75;100280.56;5116983;28;756;-49
2021/08/30 05:37:34;;;;;;;;;;;;;;;20.60;59.10;100278.28;5116904;28;823;-56
2021/08/30 05:39:59;;;;;;;;;;;;;;;20.67;60.19;100271.22;5115368;28;871;-45
2021/08/30 05:42:25;;;;;;;;;;;;;;;20.78;60.25;100277.31;5116482;28;913;-51
2021/08/30 05:44:50;;;;;;;;;;;;;;;20.77;59.93;100283.16;5116522;28;867;-55
2021/08/30 05:47:16;;;;;;;;;;;;;;;20.49;57.99;100283.22;5117109;28;1905;-52
2021/08/30 05:49:41;;;;;;;;;;;;;;;20.21;55.30;100271.44;5116748;28;768;-53
2021/08/30 05:52:07;;;;;;;;;;;;;;;19.71;53.32;100281.28;5115624;28;808;-54
2021/08/30 05:54:32;;;;;;;;;;;;;;;19.56;51.32;100276.06;5116394;28;779;-45
2021/08/30 05:56:58;;;;;;;;;;;;;;;19.16;50.43;100271.03;5116156;28;938;-48
2021/08/30 05:59:23;;;;;;;;;;;;;;;19.02;49.47;100276.50;5108431;28;1329;-46
2021/08/30 06:01:49;;;;;;;;;;;;;;;18.86;48.89;100278.69;5104535;28;1207;-49
2021/08/30 06:04:14;;;;;;;;;;;;;;;18.94;48.60;100279.94;5110861;28;1142;-50
2021/08/30 06:06:40;;;;;;;;;;;;;;;18.79;49.49;100286.53;5100778;28;1910;-51
2021/08/30 06:09:05;;;;;;;;;;;;;;;19.05;50.29;100288.88;5109897;28;1535;-48
2021/08/30 06:11:31;;;;;;;;;;;;;;;19.00;51.21;100294.47;5102424;28;854;-53
2021/08/30 06:13:56;;;;;;;;;;;;;;;19.14;51.29;100296.13;5116243;28;787;-45
2021/08/30 06:16:21;;;;;;;;;;;;;;;19.10;51.80;100294.28;5115892;28;852;-50
2021/08/30 06:18:47;;;;;;;;;;;;;;;19.03;52.22;100294.69;5116389;28;799;-50
2021/08/30 06:21:12;;;;;;;;;;;;;;;19.18;52.57;100304.63;5108034;28;742;-53
2021/08/30 06:23:38;;;;;;;;;;;;;;;19.31;53.60;100305.78;5099212;28;1491;-55
2021/08/30 06:26:03;;;;;;;;;;;;;;;19.49;55.23;100295.78;5109079;28;1917;-55
2021/08/30 06:28:29;;;;;;;;;;;;;;;19.82;56.39;100302.06;5115818;28;1009;-56
2021/08/30 06:30:54;;;;;;;;;;;;;;;20.06;57.77;100305.72;5115317;28;895;-56
2021/08/30 06:33:20;;;;;;;;;;;;;;;20.23;58.60;100294.03;5109986;28;1474;-50
2021/08/30 06:35:45;;;;;;;;;;;;;;;20.43;58.92;100304.63;5105360;28;1423;-54
2021/08/30 06:38:11;;;;;;;;;;;;;;;20.59;59.31;100294.03;5117268;28;771;-49
2021/08/30 06:40:36;;;;;;;;;;;;;;;20.71;60.16;100307.31;5110836;28;1573;-49
2021/08/30 06:43:02;;;;;;;;;;;;;;;20.91;59.65;100300.47;5115524;28;1352;-53
2021/08/30 06:45:28;;;;;;;;;;;;;;;20.55;59.19;100297.72;5104276;28;751;-49
2021/08/30 06:47:53;;;;;;;;;;;;;;;20.18;56.49;100304.06;5099832;28;1974;-54
2021/08/30 06:50:19;;;;;;;;;;;;;;;19.85;53.43;100297.84;5100186;28;1322;-54
2021/08/30 06:52:44;;;;;;;;;;;;;;;19.31;50.94;100303.03;5115000;28;1380;-53
2021/08/30 06:55:10;;;;;;;;;;;;;;;18.95;48.98;100300.88;5107581;28;1281;-52
2021/08/30 06:57:36;;;;;;;;;;;;;;;18.55;47.86;100306.72;5110352;28;967;-52
2021/08/30 07:00:05;;;;;;;;;;;;;;;18.32;49.34;100307.59;5119519;28;854;-52
2021/08/30 07:02:30;;;;;;;;;;;;;;;19.07;51.86;100303.97;5119658;28;760;-53
2021/08/30 07:04:56;;;;;;;;;;;;;;;19.42;54.70;100300.88;5119712;28;866;-49
2021/08/30 07:07:22;;;;;;;;;;;;;;;19.68;56.35;100306.72;5118796;28;1913;-50
2021/08/30 07:09:47;;;;;;;;;;;;;;;20.04;57.09;100306.03;5107493;28;1316;-52
2021/08/30 07:12:13;;;;;;;;;;;;;;;20.21;58.28;100315.63;5110212;28;1142;-54
2021/08/30 07:14:38;;;;;;;;;;;;;;;20.34;59.03;100312.84;5119525;28;828;-48
2021/08/30 07:17:04;;;;;;;;;;;;;;;20.46;59.37;100305.94;5119743;28;835;-50
2021/08/30 07:19:29;;;;;;;;;;;;;;;20.71;59.33;100318.38;5104049;28;911;-61
2021/08/30 07:21:55;;;;;;;;;;;;;;;20.82;59.62;100308.72;5109255;28;875;-51
2021/08/30 07:24:20;;;;;;;;;;;;;;;20.91;59.65;100311.53;5099579;28;775;-51
2021/08/30 07:26:46;;;;;;;;;;;;;;;21.01;59.16;100304.94;5102732;28;1917;-52
2021/08/30 07:29:11;;;;;;;;;;;;;;;20.98;58.02;100306.38;5119095;28;862;-50
2021/08/30 07:31:37;;;;;;;;;;;;;;;20.49;55.86;100305.31;5119155;28;1357;-51
2021/08/30 07:34:03;;;;;;;;;;;;;;;19.91;53.65;100295.81;5111259;28;1337;-53
2021/08/30 07:36:28;;;;;;;;;;;;;;;19.45;51.16;100298.34;5098658;28;776;-56
2021/08/30 07:38:54;;;;;;;;;;;;;;;19.28;49.13;100303.63;5107766;28;1210;-54
2021/08/30 07:41:20;;;;;;;;;;;;;;;18.90;47.80;100300.94;5118816;28;1036;-51
2021/08/30 07:43:45;;;;;;;;;;;;;;;18.61;46.84;100307.47;5118826;28;833;-52
2021/08/30 07:46:11;;;;;;;;;;;;;;;18.49;47.30;100296.88;5118287;28;1913;-49
2021/08/30 07:48:36;;;;;;;;;;;;;;;19.11;50.81;100294.00;5118572;28;759;-46
2021/08/30 07:51:02;;;;;;;;;;;;;;;19.60;54.02;100297.22;5118568;28;827;-45
2021/08/30 07:53:29;;;;;;;;;;;;;;;19.96;55.70;100303.97;5118941;28;766;-47
2021/08/30 07:55:54;;;;;;;;;;;;;;;20.09;57.89;100296.81;5115209;28;882;-55
2021/08/30 07:58:20;;;;;;;;;;;;;;;20.40;58.12;100302.50;5115053;28;1006;-50
2021/08/30 08:00:45;;;;;;;;;;;;;;;20.49;59.05;100300.59;5118560;28;837;-52
2021/08/30 08:03:11;;;;;;;;;;;;;;;20.51;59.67;100301.13;5118635;28;747;-55
2021/08/30 08:05:36;;;;;;;;;;;;;;;20.82;59.57;100300.41;5118496;28;799;-56
2021/08/30 08:08:04;;;;;;;;;;;;;;;20.97;59.46;100312.22;5118213;28;1963;-59
2021/08/30 08:10:30;;;;;;;;;;;;;;;20.85;59.40;100312.78;5118475;28;850;-47
2021/08/30 08:12:55;;;;;;;;;;;;;;;20.43;57.87;100306.56;5098217;28;923;-54
2021/08/30 08:15:22;;;;;;;;;;;;;;;20.17;55.41;100310.72;5118467;28;779;-56
2021/08/30 08:17:49;;;;;;;;;;;;;;;19.92;53.22;100311.25;5115133;28;1010;-55
2021/08/30 08:20:14;;;;;;;;;;;;;;;19.64;51.16;100309.28;5117440;28;876;-55
2021/08/30 08:22:42;;;;;;;;;;;;;;;19.35;50.01;100303.22;5118329;28;955;-52
2021/08/30 08:25:08;;;;;;;;;;;;;;;18.94;49.80;100308.34;5106677;28;1386;-52
2021/08/30 08:27:34;;;;;;;;;;;;;;;18.79;49.06;100303.84;5110526;28;1975;-51
2021/08/30 08:30:00;;;;;;;;;;;;;;;18.75;49.37;100304.75;5108946;28;1423;-51
2021/08/30 08:32:25;;;;;;;;;;;;;;;18.79;50.10;100305.81;5111376;28;791;-53
2021/08/30 08:34:50;;;;;;;;;;;;;;;18.86;50.76;100310.91;5105166;28;752;-52
2021/08/30 08:37:16;;;;;;;;;;;;;;;19.14;51.33;100304.41;5104052;28;855;-47
2021/08/30 08:39:42;;;;;;;;;;;;;;;19.20;51.98;100304.31;5118279;28;776;-56
2021/08/30 08:42:07;;;;;;;;;;;;;;;19.37;52.11;100304.53;5117290;28;915;-56
2021/08/30 08:44:33;;;;;;;;;;;;;;;19.32;53.66;100310.16;5117663;28;843;-50
2021/08/30 08:46:58;;;;;;;;;;;;;;;19.61;55.96;100293.31;5117239;28;1914;-54
2021/08/30 08:49:23;;;;;;;;;;;;;;;20.05;56.54;100302.16;5098598;28;843;-53
2021/08/30 08:51:49;;;;;;;;;;;;;;;20.32;57.45;100308.75;5117809;28;831;-53
2021/08/30 08:54:15;;;;;;;;;;;;;;;20.40;58.64;100296.13;5117756;28;771;-56
2021/08/30 08:56:40;;;;;;;;;;;;;;;20.50;59.14;100299.47;5116864;28;993;-53
2021/08/30 08:59:06;;;;;;;;;;;;;;;20.71;59.87;100304.56;5117587;28;763;-50
2021/08/30 09:01:35;;;;;;;;;;;;;;;20.84;59.95;100311.97;5116900;28;751;-49
2021/08/30 09:04:00;;;;;;;;;;;;;;;21.12;59.41;100322.88;5116985;28;840;-49
2021/08/30 09:06:27;;;;;;;;;;;;;;;20.75;58.30;100313.84;5117866;28;1909;-52
2021/08/30 09:08:53;;;;;;;;;;;;;;;20.31;55.93;100320.91;5117237;28;1038;-50
2021/08/30 09:11:20;;;;;;;;;;;;;;;19.90;53.98;100327.31;5117138;28;926;-53
2021/08/30 09:13:49;;;;;;;;;;;;;;;19.56;52.07;100329.31;5098804;28;925;-53
2021/08/30 09:16:19;;;;;;;;;;;;;;;19.29;50.52;100332.81;5116940;28;875;-52
2021/08/30 09:18:46;;;;;;;;;;;;;;;19.15;49.18;100316.25;5117074;28;862;-55
2021/08/30 09:21:14;;;;;;;;;;;;;;;18.89;48.74;100321.38;5117442;28;867;-53
2021/08/30 09:23:41;;;;;;;;;;;;;;;18.89;50.10;100321.38;5117174;28;855;-56
2021/08/30 09:26:16;;;;;;;;;;;;;;;19.32;51.67;100322.00;5116522;28;1911;-53
2021/08/30 09:28:47;;;;;;;;;;;;;;;19.59;53.82;100319.59;5116733;28;989;-61
2021/08/30 09:31:13;;;;;;;;;;;;;;;19.85;55.17;100317.16;5116782;28;798;-56
2021/08/30 09:33:45;;;;;;;;;;;;;;;20.05;55.93;100324.22;5116710;28;804;-59
2021/08/30 09:36:10;;;;;;;;;;;;;;;20.07;56.93;100326.69;5116505;28;1456;-53
2021/08/30 09:38:37;;;;;;;;;;;;;;;20.13;57.54;100328.19;5108516;28;1436;-56
2021/08/30 09:41:03;;;;;;;;;;;;;;;20.32;57.67;100330.84;5107909;28;776;-56
2021/08/30 09:43:29;;;;;;;;;;;;;;;20.47;57.50;100322.19;5107496;28;1253;-57
2021/08/30 09:45:54;;;;;;;;;;;;;;;20.68;57.43;100341.09;5098492;28;1373;-56
2021/08/30 09:48:23;;;;;;;;;;;;;;;20.48;58.37;100337.66;5081551;28;1974;-57
2021/08/30 09:50:49;;;;;;;;;;;;;;;20.62;57.93;100328.50;5103532;28;1357;-56
2021/08/30 09:53:14;;;;;;;;;;;;;;;20.85;57.79;100329.38;5108943;28;886;-56
2021/08/30 09:55:40;;;;;;;;;;;;;;;20.45;58.71;100329.97;5109976;28;1424;-52
2021/08/30 09:58:08;;;;;;;;;;;;;;;20.48;57.32;100332.13;5088669;28;1259;-54
2021/08/30 10:00:34;;;;;;;;;;;;;;;20.02;54.98;100333.13;5107347;28;1178;-55
2021/08/30 10:03:00;;;;;;;;;;;;;;;19.81;52.99;100336.28;5109226;28;1247;-52
2021/08/30 10:05:26;;;;;;;;;;;;;;;19.48;50.94;100341.84;5111507;28;1335;-57
2021/08/30 10:07:53;;;;;;;;;;;;;;;19.09;49.13;100345.81;5115408;28;1913;-56
2021/08/30 10:10:19;;;;;;;;;;;;;;;18.81;47.64;100342.91;5114254;28;1292;-54
2021/08/30 10:12:44;;;;;;;;;;;;;;;18.59;47.23;100338.03;5096419;28;1420;-57
2021/08/30 10:15:13;;;;;;;;;;;;;;;18.69;49.02;100350.84;5112323;28;980;-56
2021/08/30 10:17:43;;;;;;;;;;;;;;;19.43;52.30;100354.91;5101903;28;1265;-53
2021/08/30 10:20:11;;;;;;;;;;;;;;;19.87;55.18;100352.75;5117877;28;1181;-54
2021/08/30 10:22:37;;;;;;;;;;;;;;;20.07;57.63;100349.56;5113287;28;1154;-56
2021/08/30 10:25:02;;;;;;;;;;;;;;;20.42;58.32;100355.44;5100016;28;1380;-57
2021/08/30 10:27:32;;;;;;;;;;;;;;;20.60;58.94;100341.81;5110908;28;1997;-51
2021/08/30 10:30:08;;;;;;;;;;;;;;;20.54;60.11;100341.13;5100285;28;818;-53
2021/08/30 10:32:40;;;;;;;;;;;;;;;21.01;59.19;100349.16;5112291;28;832;-53
2021/08/30 10:35:13;;;;;;;;;;;;;;;21.08;59.01;100348.72;5114883;28;1471;-53
2021/08/30 10:37:47;;;;;;;;;;;;;;;20.63;58.97;100346.72;5117870;28;1360;-48
2021/08/30 10:40:14;;;;;;;;;;;;;;;20.18;56.83;100352.94;5120058;28;751;-52
2021/08/30 10:42:39;;;;;;;;;;;;;;;19.93;54.06;100335.78;5118249;28;966;-47
2021/08/30 10:45:06;;;;;;;;;;;;;;;19.54;51.40;100350.84;5110399;28;823;-49
2021/08/30 10:47:33;;;;;;;;;;;;;;;19.14;49.96;100347.69;5106661;28;1975;-46
2021/08/30 10:49:58;;;;;;;;;;;;;;;18.89;48.04;100343.41;5113525;28;1495;-50
2021/08/30 10:52:24;;;;;;;;;;;;;;;18.53;47.36;100341.16;5107151;28;811;-46
2021/08/30 10:54:56;;;;;;;;;;;;;;;18.50;46.80;100344.53;5119992;28;775;-50
2021/08/30 10:57:34;;;;;;;;;;;;;;;18.80;49.70;100340.47;5118878;28;1005;-49
2021/08/30 10:59:59;;;;;;;;;;;;;;;19.59;53.69;100338.91;5120346;28;832;-50
2021/08/30 11:02:34;;;;;;;;;;;;;;;19.95;56.19;100338.22;5119140;28;999;-46
2021/08/30 11:05:00;;;;;;;;;;;;;;;20.45;57.41;100337.44;5115391;28;1459;-46
2021/08/30 11:07:25;;;;;;;;;;;;;;;20.51;58.69;100347.28;5097257;28;1913;-52
2021/08/30 11:09:51;;;;;;;;;;;;;;;20.74;59.42;100341.81;5113447;28;1452;-52
2021/08/30 11:12:16;;;;;;;;;;;;;;;20.72;60.23;100347.66;5110586;28;887;-53
2021/08/30 11:14:42;;;;;;;;;;;;;;;20.92;59.97;100345.53;5118784;28;1115;-52
2021/08/30 11:17:13;;;;;;;;;;;;;;;20.81;59.11;100343.00;5110323;28;1494;-50
2021/08/30 11:19:38;;;;;;;;;;;;;;;20.38;56.55;100340.63;5102291;28;1530;-52
2021/08/30 11:22:05;;;;;;;;;;;;;;;20.06;53.92;100336.88;5107650;28;890;-51
2021/08/30 11:24:36;;;;;;;;;;;;;;;19.60;51.79;100335.00;5107410;28;1706;-54
2021/08/30 11:27:01;;;;;;;;;;;;;;;19.07;50.48;100337.06;5111931;28;1984;-52
2021/08/30 11:29:27;;;;;;;;;;;;;;;18.92;48.67;100326.28;5119380;28;791;-51
2021/08/30 11:31:53;;;;;;;;;;;;;;;18.76;47.00;100334.75;5110054;28;1420;-55
2021/08/30 11:34:26;;;;;;;;;;;;;;;18.80;47.92;100318.44;5098832;28;831;-55
2021/08/30 11:36:52;;;;;;;;;;;;;;;19.52;52.56;100321.91;5111167;28;1333;-56
2021/08/30 11:39:23;;;;;;;;;;;;;;;19.83;55.95;100322.19;5105674;28;1218;-55
2021/08/30 11:41:58;;;;;;;;;;;;;;;20.26;57.36;100321.00;5114276;28;835;-55
2021/08/30 11:44:24;;;;;;;;;;;;;;;20.35;59.26;100321.91;5119207;28;831;-50
2021/08/30 11:47:00;;;;;;;;;;;;;;;20.77;59.25;100328.16;5118415;28;1921;-55
2021/08/30 11:49:28;;;;;;;;;;;;;;;20.91;59.98;100330.88;5118521;28;860;-51
2021/08/30 11:51:53;;;;;;;;;;;;;;;21.10;59.77;100327.94;5118705;28;831;-53
2021/08/30 11:54:24;;;;;;;;;;;;;;;20.97;58.24;100331.56;5118663;28;814;-50
2021/08/30 11:57:09;;;;;;;;;;;;;;;20.41;55.72;100328.97;5118405;28;1005;-51
2021/08/30 11:59:35;;;;;;;;;;;;;;;19.82;53.15;100324.16;5118586;28;787;-49
2021/08/30 12:02:01;;;;;;;;;;;;;;;19.35;51.17;100317.84;5094514;28;990;-55
2021/08/30 12:04:32;;;;;;;;;;;;;;;18.95;49.40;100312.72;5118952;28;881;-49
2021/08/30 12:06:58;;;;;;;;;;;;;;;18.76;47.79;100311.88;5118630;28;1968;-52
2021/08/30 12:09:43;;;;;;;;;;;;;;;18.58;47.72;100313.53;5099550;28;1173;-50
2021/08/30 12:12:14;;;;;;;;;;;;;;;18.84;48.66;100313.16;5118542;28;1132;-51
2021/08/30 12:14:40;;;;;;;;;;;;;;;19.27;52.61;100315.78;5113324;28;1222;-55
2021/08/30 12:17:05;;;;;;;;;;;;;;;19.74;55.68;100308.28;5104246;28;823;-53
2021/08/30 12:19:32;;;;;;;;;;;;;;;20.00;58.09;100310.53;5112296;28;871;-54
2021/08/30 12:21:59;;;;;;;;;;;;;;;20.37;58.98;100314.16;5117981;28;771;-53
2021/08/30 12:24:25;;;;;;;;;;;;;;;20.63;59.58;100305.28;5100556;28;887;-57
2021/08/30 12:26:53;;;;;;;;;;;;;;;20.97;59.33;100307.53;5106707;28;1985;-51
2021/08/30 12:29:19;;;;;;;;;;;;;;;21.08;59.37;100319.13;5112924;28;1491;-48
2021/08/30 12:31:51;;;;;;;;;;;;;;;20.82;59.09;100307.91;5097417;28;786;-49
2021/08/30 12:34:18;;;;;;;;;;;;;;;20.63;57.63;100316.31;5097571;28;863;-54
2021/08/30 12:36:47;;;;;;;;;;;;;;;20.37;55.81;100310.56;5078615;28;1322;-51
2021/08/30 12:39:12;;;;;;;;;;;;;;;20.05;54.43;100309.59;5100799;28;1333;-48
2021/08/30 12:41:38;;;;;;;;;;;;;;;19.79;52.26;100304.59;5100121;28;930;-46
2021/08/30 12:44:03;;;;;;;;;;;;;;;19.43;51.12;100308.88;5118049;28;839;-48
2021/08/30 12:46:29;;;;;;;;;;;;;;;19.21;49.84;100305.94;5117435;28;1941;-47
2021/08/30 12:48:54;;;;;;;;;;;;;;;19.05;49.46;100292.44;5106753;28;773;-51
2021/08/30 12:51:21;;;;;;;;;;;;;;;18.78;49.86;100301.41;5098901;28;812;-52